Senin
| Ora | Descriere | Temp | Se simte | Precipitatii | Umiditate | Vant |
|---|---|---|---|---|---|---|
| 00:00 | 11.4° | 9.8° | 0% | 87% | S 14 KM/H | |
| 01:00 | Senin | 11.3° | 9.7° | 0% | 87% | S 13.3 KM/H |
| 02:00 | Senin | 11.3° | 9.8° | 0% | 85% | S 12.6 KM/H |
| 03:00 | 11.4° | 9.8° | 0% | 84% | S 13.7 KM/H | |
| 04:00 | Senin | 11.6° | 9.9° | 0% | 84% | S 14.8 KM/H |
| 05:00 | Senin | 11.9° | 10.5° | 0% | 83% | S 13 KM/H |
| 06:00 | 12.1° | 10.9° | 0% | 82% | S 11.5 KM/H | |
| 07:00 | Acoperit de nori | 12.6° | 11.4° | 0% | 82% | S 12.2 KM/H |
| 08:00 | Innorat | 13.3° | 12.3° | 0% | 80% | S 12.6 KM/H |
| 09:00 | Innorat | 14.3° | 13.4° | 0% | 77% | SSE 12.6 KM/H |
| 10:00 | 15.2° | 15.2° | 0% | 75% | SSE 13 KM/H | |
| 11:00 | 16.5° | 16.5° | 0% | 71% | SSE 13.3 KM/H | |
| 12:00 | Senin | 17.1° | 17.1° | 0% | 69% | SSE 15.5 KM/H |
| 13:00 | Senin | 16.9° | 16.9° | 0% | 70% | SE 16.2 KM/H |
| 14:00 | 16.6° | 16.6° | 0% | 72% | SE 16.9 KM/H | |
| 15:00 | 16.2° | 16.6° | 0% | 77% | SE 15.8 KM/H | |
| 16:00 | Senin | 16.3° | 16.3° | 0% | 73% | ESE 15.5 KM/H |
| 17:00 | 15.8° | 15.8° | 0% | 76% | ESE 13.7 KM/H | |
| 18:00 | 15.2° | 15.2° | 0% | 79% | ESE 14 KM/H | |
| 19:00 | Senin | 14.5° | 13.6° | 0% | 83% | ESE 13.7 KM/H |
| 20:00 | 13.5° | 12.5° | 0% | 89% | SE 13 KM/H | |
| 21:00 | 13.1° | 11.9° | 0% | 91% | SE 13 KM/H | |
| 22:00 | 13.1° | 11.9° | 0% | 91% | SE 13.7 KM/H | |
| 23:00 | 13° | 11.8° | 0% | 91% | SE 13.7 KM/H |